sensor_id;sensor_type;location;lat;lon;timestamp;P1;durP1;ratioP1;P2;durP2;ratioP2
19903;SDS011;10114;50.970;4.962;2023-11-18T00:01:31;5.57;;;3.03;;
19903;SDS011;10114;50.970;4.962;2023-11-18T00:03:58;8.10;;;4.00;;
19903;SDS011;10114;50.970;4.962;2023-11-18T00:06:24;7.35;;;4.07;;
19903;SDS011;10114;50.970;4.962;2023-11-18T00:08:50;8.57;;;4.25;;
19903;SDS011;10114;50.970;4.962;2023-11-18T00:11:16;8.75;;;4.38;;
19903;SDS011;10114;50.970;4.962;2023-11-18T00:13:43;7.97;;;4.28;;
19903;SDS011;10114;50.970;4.962;2023-11-18T00:16:09;10.07;;;4.68;;
19903;SDS011;10114;50.970;4.962;2023-11-18T00:18:40;10.07;;;4.60;;
19903;SDS011;10114;50.970;4.962;2023-11-18T00:21:06;9.38;;;4.18;;
19903;SDS011;10114;50.970;4.962;2023-11-18T00:23:33;11.75;;;3.55;;
19903;SDS011;10114;50.970;4.962;2023-11-18T00:25:59;9.70;;;3.83;;
19903;SDS011;10114;50.970;4.962;2023-11-18T00:28:25;7.60;;;3.65;;
19903;SDS011;10114;50.970;4.962;2023-11-18T00:30:51;11.10;;;4.97;;
19903;SDS011;10114;50.970;4.962;2023-11-18T00:33:17;9.00;;;4.30;;
19903;SDS011;10114;50.970;4.962;2023-11-18T00:35:43;9.15;;;4.03;;
19903;SDS011;10114;50.970;4.962;2023-11-18T00:38:10;7.75;;;3.50;;
19903;SDS011;10114;50.970;4.962;2023-11-18T00:40:36;8.57;;;3.90;;
19903;SDS011;10114;50.970;4.962;2023-11-18T00:43:02;8.13;;;4.45;;
19903;SDS011;10114;50.970;4.962;2023-11-18T00:45:28;8.43;;;3.97;;
19903;SDS011;10114;50.970;4.962;2023-11-18T00:47:54;7.60;;;4.05;;
19903;SDS011;10114;50.970;4.962;2023-11-18T00:50:21;7.85;;;3.60;;
19903;SDS011;10114;50.970;4.962;2023-11-18T00:52:47;10.25;;;3.17;;
19903;SDS011;10114;50.970;4.962;2023-11-18T00:55:14;8.18;;;3.78;;
19903;SDS011;10114;50.970;4.962;2023-11-18T00:57:43;9.48;;;4.65;;
19903;SDS011;10114;50.970;4.962;2023-11-18T01:00:11;6.97;;;3.92;;
19903;SDS011;10114;50.970;4.962;2023-11-18T01:02:47;10.10;;;4.00;;
19903;SDS011;10114;50.970;4.962;2023-11-18T01:05:14;8.40;;;4.35;;
19903;SDS011;10114;50.970;4.962;2023-11-18T01:07:41;8.52;;;3.95;;
19903;SDS011;10114;50.970;4.962;2023-11-18T01:10:08;9.15;;;4.57;;
19903;SDS011;10114;50.970;4.962;2023-11-18T01:12:35;11.05;;;4.82;;
19903;SDS011;10114;50.970;4.962;2023-11-18T01:15:01;9.52;;;3.80;;
19903;SDS011;10114;50.970;4.962;2023-11-18T01:17:28;9.38;;;4.22;;
19903;SDS011;10114;50.970;4.962;2023-11-18T01:19:54;7.35;;;4.25;;
19903;SDS011;10114;50.970;4.962;2023-11-18T01:22:20;10.15;;;4.13;;
19903;SDS011;10114;50.970;4.962;2023-11-18T01:24:46;9.38;;;3.95;;
19903;SDS011;10114;50.970;4.962;2023-11-18T01:27:12;8.85;;;4.03;;
19903;SDS011;10114;50.970;4.962;2023-11-18T01:29:38;7.82;;;3.85;;
19903;SDS011;10114;50.970;4.962;2023-11-18T01:32:05;9.93;;;4.22;;
19903;SDS011;10114;50.970;4.962;2023-11-18T01:34:37;9.18;;;4.30;;
19903;SDS011;10114;50.970;4.962;2023-11-18T01:37:08;12.68;;;4.20;;
19903;SDS011;10114;50.970;4.962;2023-11-18T01:39:35;9.27;;;3.75;;
19903;SDS011;10114;50.970;4.962;2023-11-18T01:42:01;12.52;;;4.43;;
19903;SDS011;10114;50.970;4.962;2023-11-18T01:44:28;7.80;;;4.57;;
19903;SDS011;10114;50.970;4.962;2023-11-18T01:46:54;11.20;;;6.18;;
19903;SDS011;10114;50.970;4.962;2023-11-18T01:49:21;10.10;;;4.25;;
19903;SDS011;10114;50.970;4.962;2023-11-18T01:51:47;10.55;;;4.20;;
19903;SDS011;10114;50.970;4.962;2023-11-18T01:54:19;9.25;;;4.25;;
19903;SDS011;10114;50.970;4.962;2023-11-18T01:56:46;10.10;;;4.72;;
19903;SDS011;10114;50.970;4.962;2023-11-18T01:59:12;11.05;;;4.70;;
19903;SDS011;10114;50.970;4.962;2023-11-18T02:01:46;7.82;;;4.60;;
19903;SDS011;10114;50.970;4.962;2023-11-18T02:04:13;8.82;;;4.35;;
19903;SDS011;10114;50.970;4.962;2023-11-18T02:06:40;9.73;;;4.13;;
19903;SDS011;10114;50.970;4.962;2023-11-18T02:09:06;9.25;;;3.35;;
19903;SDS011;10114;50.970;4.962;2023-11-18T02:11:43;6.85;;;4.00;;
19903;SDS011;10114;50.970;4.962;2023-11-18T02:14:13;8.18;;;4.20;;
19903;SDS011;10114;50.970;4.962;2023-11-18T02:16:41;7.57;;;3.58;;
19903;SDS011;10114;50.970;4.962;2023-11-18T02:19:09;8.52;;;3.67;;
19903;SDS011;10114;50.970;4.962;2023-11-18T02:21:41;10.05;;;3.90;;
19903;SDS011;10114;50.970;4.962;2023-11-18T02:24:08;6.97;;;3.33;;
19903;SDS011;10114;50.970;4.962;2023-11-18T02:26:34;8.52;;;3.72;;
19903;SDS011;10114;50.970;4.962;2023-11-18T02:29:00;10.30;;;3.67;;
19903;SDS011;10114;50.970;4.962;2023-11-18T02:31:27;8.13;;;3.88;;
19903;SDS011;10114;50.970;4.962;2023-11-18T02:34:09;7.38;;;3.20;;
19903;SDS011;10114;50.970;4.962;2023-11-18T02:36:41;10.07;;;4.38;;
19903;SDS011;10114;50.970;4.962;2023-11-18T02:39:57;9.52;;;3.75;;
19903;SDS011;10114;50.970;4.962;2023-11-18T02:41:58;7.68;;;2.83;;
19903;SDS011;10114;50.970;4.962;2023-11-18T02:44:26;6.78;;;3.65;;
19903;SDS011;10114;50.970;4.962;2023-11-18T02:46:55;5.88;;;3.03;;
19903;SDS011;10114;50.970;4.962;2023-11-18T02:49:21;6.78;;;3.83;;
19903;SDS011;10114;50.970;4.962;2023-11-18T02:51:47;8.82;;;3.80;;
19903;SDS011;10114;50.970;4.962;2023-11-18T02:54:13;7.38;;;3.75;;
19903;SDS011;10114;50.970;4.962;2023-11-18T02:56:41;6.53;;;3.15;;
19903;SDS011;10114;50.970;4.962;2023-11-18T02:59:07;7.45;;;3.95;;
19903;SDS011;10114;50.970;4.962;2023-11-18T03:01:33;6.15;;;3.42;;
19903;SDS011;10114;50.970;4.962;2023-11-18T03:04:00;9.77;;;3.58;;
19903;SDS011;10114;50.970;4.962;2023-11-18T03:06:26;7.43;;;3.05;;
19903;SDS011;10114;50.970;4.962;2023-11-18T03:08:52;10.10;;;3.85;;
19903;SDS011;10114;50.970;4.962;2023-11-18T03:11:19;7.55;;;3.60;;
19903;SDS011;10114;50.970;4.962;2023-11-18T03:13:45;7.65;;;3.80;;
19903;SDS011;10114;50.970;4.962;2023-11-18T03:16:11;7.95;;;3.58;;
19903;SDS011;10114;50.970;4.962;2023-11-18T03:18:41;7.97;;;3.13;;
19903;SDS011;10114;50.970;4.962;2023-11-18T03:21:14;9.23;;;4.45;;
19903;SDS011;10114;50.970;4.962;2023-11-18T03:23:40;6.93;;;3.45;;
19903;SDS011;10114;50.970;4.962;2023-11-18T03:26:07;6.47;;;3.00;;
19903;SDS011;10114;50.970;4.962;2023-11-18T03:28:33;8.10;;;3.95;;
19903;SDS011;10114;50.970;4.962;2023-11-18T03:31:01;6.70;;;3.38;;
19903;SDS011;10114;50.970;4.962;2023-11-18T03:33:28;5.85;;;2.75;;
19903;SDS011;10114;50.970;4.962;2023-11-18T03:35:54;7.80;;;3.10;;
19903;SDS011;10114;50.970;4.962;2023-11-18T03:38:21;5.32;;;2.40;;
19903;SDS011;10114;50.970;4.962;2023-11-18T03:40:47;6.45;;;3.13;;
19903;SDS011;10114;50.970;4.962;2023-11-18T03:43:13;5.68;;;3.30;;
19903;SDS011;10114;50.970;4.962;2023-11-18T03:45:39;5.72;;;2.90;;
19903;SDS011;10114;50.970;4.962;2023-11-18T03:48:06;7.70;;;3.30;;
19903;SDS011;10114;50.970;4.962;2023-11-18T03:50:32;5.10;;;2.60;;
19903;SDS011;10114;50.970;4.962;2023-11-18T03:52:58;8.00;;;3.08;;
19903;SDS011;10114;50.970;4.962;2023-11-18T03:55:26;7.65;;;2.80;;
19903;SDS011;10114;50.970;4.962;2023-11-18T03:57:52;8.27;;;3.28;;
19903;SDS011;10114;50.970;4.962;2023-11-18T04:00:19;6.50;;;3.00;;
19903;SDS011;10114;50.970;4.962;2023-11-18T04:02:45;7.70;;;3.38;;
19903;SDS011;10114;50.970;4.962;2023-11-18T04:05:12;6.25;;;2.67;;
19903;SDS011;10114;50.970;4.962;2023-11-18T04:07:38;5.78;;;2.47;;
19903;SDS011;10114;50.970;4.962;2023-11-18T04:10:06;7.43;;;3.50;;
19903;SDS011;10114;50.970;4.962;2023-11-18T04:12:35;5.35;;;2.60;;
19903;SDS011;10114;50.970;4.962;2023-11-18T04:15:01;6.70;;;2.80;;
19903;SDS011;10114;50.970;4.962;2023-11-18T04:17:29;4.90;;;2.38;;
19903;SDS011;10114;50.970;4.962;2023-11-18T04:19:55;4.85;;;2.20;;
19903;SDS011;10114;50.970;4.962;2023-11-18T04:22:22;5.47;;;2.20;;
19903;SDS011;10114;50.970;4.962;2023-11-18T04:24:48;11.48;;;2.58;;
19903;SDS011;10114;50.970;4.962;2023-11-18T04:27:15;5.82;;;2.83;;
19903;SDS011;10114;50.970;4.962;2023-11-18T04:29:41;5.80;;;2.53;;
19903;SDS011;10114;50.970;4.962;2023-11-18T04:32:07;4.72;;;2.15;;
19903;SDS011;10114;50.970;4.962;2023-11-18T04:34:38;5.25;;;2.22;;
19903;SDS011;10114;50.970;4.962;2023-11-18T04:37:07;5.00;;;2.60;;
19903;SDS011;10114;50.970;4.962;2023-11-18T04:39:33;6.20;;;2.50;;
19903;SDS011;10114;50.970;4.962;2023-11-18T04:41:59;4.53;;;2.17;;
19903;SDS011;10114;50.970;4.962;2023-11-18T04:44:28;3.83;;;2.03;;
19903;SDS011;10114;50.970;4.962;2023-11-18T04:46:56;4.20;;;1.55;;
19903;SDS011;10114;50.970;4.962;2023-11-18T04:49:22;4.68;;;2.30;;
19903;SDS011;10114;50.970;4.962;2023-11-18T04:51:49;5.03;;;2.17;;
19903;SDS011;10114;50.970;4.962;2023-11-18T04:54:15;5.43;;;2.22;;
19903;SDS011;10114;50.970;4.962;2023-11-18T04:56:41;4.55;;;2.38;;
19903;SDS011;10114;50.970;4.962;2023-11-18T04:59:07;5.35;;;2.60;;
19903;SDS011;10114;50.970;4.962;2023-11-18T05:01:33;5.53;;;2.28;;
19903;SDS011;10114;50.970;4.962;2023-11-18T05:03:59;3.65;;;1.88;;
19903;SDS011;10114;50.970;4.962;2023-11-18T05:06:25;3.25;;;1.77;;
19903;SDS011;10114;50.970;4.962;2023-11-18T05:08:52;3.15;;;1.65;;
19903;SDS011;10114;50.970;4.962;2023-11-18T05:11:18;2.55;;;1.38;;
19903;SDS011;10114;50.970;4.962;2023-11-18T05:13:44;3.20;;;1.80;;
19903;SDS011;10114;50.970;4.962;2023-11-18T05:16:10;2.92;;;1.23;;
19903;SDS011;10114;50.970;4.962;2023-11-18T05:18:36;3.38;;;1.60;;
19903;SDS011;10114;50.970;4.962;2023-11-18T05:21:04;2.65;;;1.40;;
19903;SDS011;10114;50.970;4.962;2023-11-18T05:23:30;3.15;;;1.27;;
19903;SDS011;10114;50.970;4.962;2023-11-18T05:25:59;2.67;;;1.40;;
19903;SDS011;10114;50.970;4.962;2023-11-18T05:28:26;7.45;;;1.65;;
19903;SDS011;10114;50.970;4.962;2023-11-18T05:30:52;2.97;;;1.10;;
19903;SDS011;10114;50.970;4.962;2023-11-18T05:33:22;3.65;;;1.52;;
19903;SDS011;10114;50.970;4.962;2023-11-18T05:35:49;9.00;;;1.23;;
19903;SDS011;10114;50.970;4.962;2023-11-18T05:38:15;5.13;;;1.63;;
19903;SDS011;10114;50.970;4.962;2023-11-18T05:40:43;4.15;;;1.35;;
19903;SDS011;10114;50.970;4.962;2023-11-18T05:43:19;2.95;;;1.42;;
19903;SDS011;10114;50.970;4.962;2023-11-18T05:45:46;2.63;;;1.20;;
19903;SDS011;10114;50.970;4.962;2023-11-18T05:48:30;3.15;;;1.20;;
19903;SDS011;10114;50.970;4.962;2023-11-18T05:50:57;4.15;;;1.52;;
19903;SDS011;10114;50.970;4.962;2023-11-18T05:53:23;4.55;;;1.40;;
19903;SDS011;10114;50.970;4.962;2023-11-18T05:55:49;2.90;;;1.10;;
19903;SDS011;10114;50.970;4.962;2023-11-18T05:58:15;1.70;;;1.00;;
19903;SDS011;10114;50.970;4.962;2023-11-18T06:00:41;4.65;;;1.27;;
19903;SDS011;10114;50.970;4.962;2023-11-18T06:03:07;5.70;;;2.47;;
19903;SDS011;10114;50.970;4.962;2023-11-18T06:05:33;2.20;;;1.20;;
19903;SDS011;10114;50.970;4.962;2023-11-18T06:08:00;3.72;;;1.20;;
19903;SDS011;10114;50.970;4.962;2023-11-18T06:10:26;2.92;;;1.15;;
19903;SDS011;10114;50.970;4.962;2023-11-18T06:12:53;2.75;;;1.00;;
19903;SDS011;10114;50.970;4.962;2023-11-18T06:15:19;3.58;;;1.48;;
19903;SDS011;10114;50.970;4.962;2023-11-18T06:17:46;5.13;;;1.40;;
19903;SDS011;10114;50.970;4.962;2023-11-18T06:20:13;1.40;;;0.88;;
19903;SDS011;10114;50.970;4.962;2023-11-18T06:22:42;4.28;;;0.90;;
19903;SDS011;10114;50.970;4.962;2023-11-18T06:25:08;2.03;;;0.80;;
19903;SDS011;10114;50.970;4.962;2023-11-18T06:27:34;3.15;;;1.27;;
19903;SDS011;10114;50.970;4.962;2023-11-18T06:30:00;3.28;;;1.23;;
19903;SDS011;10114;50.970;4.962;2023-11-18T06:32:26;1.98;;;0.95;;
19903;SDS011;10114;50.970;4.962;2023-11-18T06:34:52;2.92;;;1.05;;
19903;SDS011;10114;50.970;4.962;2023-11-18T06:37:19;3.33;;;1.00;;
19903;SDS011;10114;50.970;4.962;2023-11-18T06:39:46;1.23;;;0.63;;
19903;SDS011;10114;50.970;4.962;2023-11-18T06:42:13;1.67;;;0.93;;
19903;SDS011;10114;50.970;4.962;2023-11-18T06:44:40;2.38;;;0.77;;
19903;SDS011;10114;50.970;4.962;2023-11-18T06:47:06;2.80;;;1.20;;
19903;SDS011;10114;50.970;4.962;2023-11-18T06:49:32;3.53;;;1.33;;
19903;SDS011;10114;50.970;4.962;2023-11-18T06:52:02;3.50;;;1.27;;
19903;SDS011;10114;50.970;4.962;2023-11-18T06:54:28;5.18;;;1.05;;
19903;SDS011;10114;50.970;4.962;2023-11-18T06:56:54;3.10;;;1.40;;
19903;SDS011;10114;50.970;4.962;2023-11-18T06:59:21;4.68;;;1.40;;
19903;SDS011;10114;50.970;4.962;2023-11-18T07:01:47;3.00;;;1.50;;
19903;SDS011;10114;50.970;4.962;2023-11-18T07:04:13;1.88;;;0.88;;
19903;SDS011;10114;50.970;4.962;2023-11-18T07:06:40;5.13;;;1.88;;
19903;SDS011;10114;50.970;4.962;2023-11-18T07:09:06;2.25;;;1.27;;
19903;SDS011;10114;50.970;4.962;2023-11-18T07:11:42;2.00;;;0.88;;
19903;SDS011;10114;50.970;4.962;2023-11-18T07:14:08;2.45;;;1.05;;
19903;SDS011;10114;50.970;4.962;2023-11-18T07:16:35;2.78;;;0.98;;
19903;SDS011;10114;50.970;4.962;2023-11-18T07:19:01;1.75;;;0.77;;
19903;SDS011;10114;50.970;4.962;2023-11-18T07:21:29;1.70;;;0.82;;
19903;SDS011;10114;50.970;4.962;2023-11-18T07:23:55;2.28;;;1.08;;
19903;SDS011;10114;50.970;4.962;2023-11-18T07:26:22;2.33;;;1.00;;
19903;SDS011;10114;50.970;4.962;2023-11-18T07:28:49;1.92;;;0.82;;
19903;SDS011;10114;50.970;4.962;2023-11-18T07:31:15;1.63;;;0.85;;
19903;SDS011;10114;50.970;4.962;2023-11-18T07:33:43;3.80;;;1.35;;
19903;SDS011;10114;50.970;4.962;2023-11-18T07:36:13;3.40;;;1.10;;
19903;SDS011;10114;50.970;4.962;2023-11-18T07:38:40;1.83;;;0.63;;
19903;SDS011;10114;50.970;4.962;2023-11-18T07:41:06;1.83;;;0.95;;
19903;SDS011;10114;50.970;4.962;2023-11-18T07:43:33;2.60;;;0.90;;
19903;SDS011;10114;50.970;4.962;2023-11-18T07:46:01;3.15;;;0.85;;
19903;SDS011;10114;50.970;4.962;2023-11-18T07:48:27;1.17;;;0.73;;
19903;SDS011;10114;50.970;4.962;2023-11-18T07:50:53;2.55;;;1.08;;
19903;SDS011;10114;50.970;4.962;2023-11-18T07:53:19;2.72;;;1.30;;
19903;SDS011;10114;50.970;4.962;2023-11-18T07:55:45;2.45;;;1.00;;
19903;SDS011;10114;50.970;4.962;2023-11-18T07:58:12;4.10;;;1.40;;
19903;SDS011;10114;50.970;4.962;2023-11-18T08:00:39;2.17;;;1.27;;
19903;SDS011;10114;50.970;4.962;2023-11-18T08:03:06;2.65;;;1.40;;
19903;SDS011;10114;50.970;4.962;2023-11-18T08:05:37;2.97;;;1.00;;
19903;SDS011;10114;50.970;4.962;2023-11-18T08:08:09;4.30;;;1.20;;
19903;SDS011;10114;50.970;4.962;2023-11-18T08:10:38;4.43;;;1.67;;
19903;SDS011;10114;50.970;4.962;2023-11-18T08:13:05;2.63;;;1.13;;
19903;SDS011;10114;50.970;4.962;2023-11-18T08:15:35;2.78;;;1.40;;
19903;SDS011;10114;50.970;4.962;2023-11-18T08:18:01;4.30;;;1.90;;
19903;SDS011;10114;50.970;4.962;2023-11-18T08:20:28;9.10;;;1.35;;
19903;SDS011;10114;50.970;4.962;2023-11-18T08:22:54;2.75;;;1.17;;
19903;SDS011;10114;50.970;4.962;2023-11-18T08:25:20;4.90;;;1.10;;
19903;SDS011;10114;50.970;4.962;2023-11-18T08:27:46;7.32;;;1.23;;
19903;SDS011;10114;50.970;4.962;2023-11-18T08:30:12;3.83;;;1.42;;
19903;SDS011;10114;50.970;4.962;2023-11-18T08:32:39;4.03;;;1.15;;
19903;SDS011;10114;50.970;4.962;2023-11-18T08:35:08;6.18;;;1.45;;
19903;SDS011;10114;50.970;4.962;2023-11-18T08:37:35;2.65;;;1.23;;
19903;SDS011;10114;50.970;4.962;2023-11-18T08:40:05;6.28;;;2.45;;
19903;SDS011;10114;50.970;4.962;2023-11-18T08:42:43;2.92;;;1.25;;
19903;SDS011;10114;50.970;4.962;2023-11-18T08:45:15;3.47;;;1.42;;
19903;SDS011;10114;50.970;4.962;2023-11-18T08:47:48;2.55;;;1.15;;
19903;SDS011;10114;50.970;4.962;2023-11-18T08:50:14;3.30;;;1.15;;
19903;SDS011;10114;50.970;4.962;2023-11-18T08:52:41;3.60;;;1.27;;
19903;SDS011;10114;50.970;4.962;2023-11-18T08:55:11;3.65;;;1.30;;
19903;SDS011;10114;50.970;4.962;2023-11-18T08:57:38;6.35;;;1.63;;
19903;SDS011;10114;50.970;4.962;2023-11-18T09:00:17;3.92;;;1.73;;
19903;SDS011;10114;50.970;4.962;2023-11-18T09:03:02;3.03;;;1.27;;
19903;SDS011;10114;50.970;4.962;2023-11-18T09:05:32;3.83;;;1.55;;
19903;SDS011;10114;50.970;4.962;2023-11-18T09:08:01;5.90;;;1.70;;
19903;SDS011;10114;50.970;4.962;2023-11-18T09:10:30;5.97;;;2.60;;
19903;SDS011;10114;50.970;4.962;2023-11-18T09:12:57;3.17;;;1.58;;
19903;SDS011;10114;50.970;4.962;2023-11-18T09:15:23;3.25;;;2.05;;
19903;SDS011;10114;50.970;4.962;2023-11-18T09:17:49;5.13;;;1.55;;
19903;SDS011;10114;50.970;4.962;2023-11-18T09:20:16;4.82;;;1.30;;
19903;SDS011;10114;50.970;4.962;2023-11-18T09:22:47;2.90;;;1.40;;
19903;SDS011;10114;50.970;4.962;2023-11-18T09:25:13;4.05;;;1.63;;
19903;SDS011;10114;50.970;4.962;2023-11-18T09:27:39;3.55;;;1.75;;
19903;SDS011;10114;50.970;4.962;2023-11-18T09:30:06;3.97;;;1.77;;
19903;SDS011;10114;50.970;4.962;2023-11-18T09:32:39;4.60;;;1.30;;
19903;SDS011;10114;50.970;4.962;2023-11-18T09:35:07;4.25;;;1.40;;
19903;SDS011;10114;50.970;4.962;2023-11-18T09:37:34;3.05;;;1.20;;
19903;SDS011;10114;50.970;4.962;2023-11-18T09:40:01;3.25;;;1.13;;
19903;SDS011;10114;50.970;4.962;2023-11-18T09:42:42;2.45;;;1.52;;
19903;SDS011;10114;50.970;4.962;2023-11-18T09:45:11;2.75;;;1.40;;
19903;SDS011;10114;50.970;4.962;2023-11-18T09:47:44;7.05;;;1.33;;
19903;SDS011;10114;50.970;4.962;2023-11-18T09:50:17;3.97;;;1.95;;
19903;SDS011;10114;50.970;4.962;2023-11-18T09:52:48;2.65;;;1.40;;
19903;SDS011;10114;50.970;4.962;2023-11-18T09:55:27;2.15;;;1.08;;
19903;SDS011;10114;50.970;4.962;2023-11-18T09:57:59;3.20;;;1.40;;
19903;SDS011;10114;50.970;4.962;2023-11-18T10:00:29;2.67;;;1.33;;
19903;SDS011;10114;50.970;4.962;2023-11-18T10:03:04;3.55;;;1.67;;
19903;SDS011;10114;50.970;4.962;2023-11-18T10:05:33;2.20;;;1.20;;
19903;SDS011;10114;50.970;4.962;2023-11-18T10:08:02;4.10;;;2.03;;
19903;SDS011;10114;50.970;4.962;2023-11-18T10:10:30;3.70;;;1.60;;
19903;SDS011;10114;50.970;4.962;2023-11-18T10:13:03;5.20;;;1.48;;
19903;SDS011;10114;50.970;4.962;2023-11-18T10:15:33;4.68;;;2.33;;
19903;SDS011;10114;50.970;4.962;2023-11-18T10:18:00;2.92;;;1.58;;
19903;SDS011;10114;50.970;4.962;2023-11-18T10:23:09;5.07;;;2.45;;
19903;SDS011;10114;50.970;4.962;2023-11-18T10:25:49;2.33;;;1.60;;
19903;SDS011;10114;50.970;4.962;2023-11-18T10:30:48;2.25;;;1.63;;
19903;SDS011;10114;50.970;4.962;2023-11-18T10:33:15;4.55;;;2.30;;
19903;SDS011;10114;50.970;4.962;2023-11-18T10:35:52;3.70;;;2.20;;
19903;SDS011;10114;50.970;4.962;2023-11-18T10:38:20;3.53;;;1.77;;
19903;SDS011;10114;50.970;4.962;2023-11-18T10:40:52;3.67;;;1.88;;
19903;SDS011;10114;50.970;4.962;2023-11-18T10:43:18;2.50;;;1.50;;
19903;SDS011;10114;50.970;4.962;2023-11-18T10:45:44;3.95;;;2.08;;
19903;SDS011;10114;50.970;4.962;2023-11-18T10:48:12;2.47;;;1.92;;
19903;SDS011;10114;50.970;4.962;2023-11-18T10:50:42;3.47;;;1.67;;
19903;SDS011;10114;50.970;4.962;2023-11-18T10:53:09;5.50;;;2.30;;
19903;SDS011;10114;50.970;4.962;2023-11-18T10:55:36;5.38;;;2.22;;
19903;SDS011;10114;50.970;4.962;2023-11-18T10:58:03;4.55;;;2.05;;
19903;SDS011;10114;50.970;4.962;2023-11-18T11:00:34;3.78;;;2.20;;
19903;SDS011;10114;50.970;4.962;2023-11-18T11:03:12;4.93;;;2.20;;
19903;SDS011;10114;50.970;4.962;2023-11-18T11:05:39;3.42;;;2.03;;
19903;SDS011;10114;50.970;4.962;2023-11-18T11:08:07;4.95;;;2.60;;
19903;SDS011;10114;50.970;4.962;2023-11-18T11:10:34;3.05;;;2.03;;
19903;SDS011;10114;50.970;4.962;2023-11-18T11:13:01;6.70;;;2.95;;
19903;SDS011;10114;50.970;4.962;2023-11-18T11:15:31;3.13;;;2.13;;
19903;SDS011;10114;50.970;4.962;2023-11-18T11:18:07;3.88;;;2.50;;
19903;SDS011;10114;50.970;4.962;2023-11-18T11:20:34;3.70;;;1.85;;
19903;SDS011;10114;50.970;4.962;2023-11-18T11:31:28;4.25;;;2.92;;
19903;SDS011;10114;50.970;4.962;2023-11-18T11:34:04;3.40;;;2.47;;
19903;SDS011;10114;50.970;4.962;2023-11-18T11:36:41;2.78;;;2.30;;
19903;SDS011;10114;50.970;4.962;2023-11-18T11:39:08;3.70;;;2.30;;
19903;SDS011;10114;50.970;4.962;2023-11-18T11:41:39;2.42;;;1.95;;
19903;SDS011;10114;50.970;4.962;2023-11-18T11:44:05;2.88;;;2.05;;
19903;SDS011;10114;50.970;4.962;2023-11-18T11:46:32;2.38;;;2.17;;
19903;SDS011;10114;50.970;4.962;2023-11-18T11:49:00;2.35;;;2.15;;
19903;SDS011;10114;50.970;4.962;2023-11-18T11:51:37;2.95;;;2.50;;
19903;SDS011;10114;50.970;4.962;2023-11-18T11:54:12;3.00;;;2.38;;
19903;SDS011;10114;50.970;4.962;2023-11-18T11:56:46;3.88;;;2.53;;
19903;SDS011;10114;50.970;4.962;2023-11-18T11:59:12;3.00;;;2.35;;
19903;SDS011;10114;50.970;4.962;2023-11-18T12:01:41;3.35;;;2.75;;
19903;SDS011;10114;50.970;4.962;2023-11-18T12:04:12;2.67;;;2.42;;
19903;SDS011;10114;50.970;4.962;2023-11-18T12:06:46;2.92;;;2.45;;
19903;SDS011;10114;50.970;4.962;2023-11-18T12:09:13;2.03;;;1.83;;
19903;SDS011;10114;50.970;4.962;2023-11-18T12:11:45;3.15;;;2.58;;
19903;SDS011;10114;50.970;4.962;2023-11-18T12:14:14;2.20;;;2.00;;
19903;SDS011;10114;50.970;4.962;2023-11-18T12:16:59;2.50;;;2.30;;
19903;SDS011;10114;50.970;4.962;2023-11-18T12:19:32;2.75;;;2.20;;
19903;SDS011;10114;50.970;4.962;2023-11-18T12:22:22;2.60;;;2.33;;
19903;SDS011;10114;50.970;4.962;2023-11-18T12:35:29;3.38;;;2.95;;
19903;SDS011;10114;50.970;4.962;2023-11-18T12:40:56;2.58;;;2.38;;
19903;SDS011;10114;50.970;4.962;2023-11-18T12:43:38;2.28;;;2.05;;
19903;SDS011;10114;50.970;4.962;2023-11-18T12:49:00;1.92;;;1.83;;
19903;SDS011;10114;50.970;4.962;2023-11-18T12:51:28;3.55;;;2.17;;
19903;SDS011;10114;50.970;4.962;2023-11-18T12:53:56;1.70;;;1.60;;
19903;SDS011;10114;50.970;4.962;2023-11-18T12:56:23;2.10;;;1.92;;
19903;SDS011;10114;50.970;4.962;2023-11-18T12:58:51;2.10;;;1.80;;
19903;SDS011;10114;50.970;4.962;2023-11-18T13:01:17;2.58;;;1.90;;
19903;SDS011;10114;50.970;4.962;2023-11-18T13:03:44;2.28;;;1.95;;
19903;SDS011;10114;50.970;4.962;2023-11-18T13:06:10;2.20;;;2.00;;
19903;SDS011;10114;50.970;4.962;2023-11-18T13:08:37;2.00;;;1.80;;
19903;SDS011;10114;50.970;4.962;2023-11-18T13:11:04;2.00;;;1.77;;
19903;SDS011;10114;50.970;4.962;2023-11-18T13:13:36;2.80;;;2.50;;
19903;SDS011;10114;50.970;4.962;2023-11-18T13:16:02;2.20;;;2.00;;
19903;SDS011;10114;50.970;4.962;2023-11-18T13:18:40;2.20;;;2.00;;
19903;SDS011;10114;50.970;4.962;2023-11-18T13:21:06;2.10;;;1.90;;
19903;SDS011;10114;50.970;4.962;2023-11-18T13:23:36;2.10;;;1.90;;
19903;SDS011;10114;50.970;4.962;2023-11-18T13:26:02;2.17;;;1.98;;
19903;SDS011;10114;50.970;4.962;2023-11-18T13:28:30;1.90;;;1.80;;
19903;SDS011;10114;50.970;4.962;2023-11-18T13:30:57;1.88;;;1.77;;
19903;SDS011;10114;50.970;4.962;2023-11-18T13:33:23;2.38;;;2.17;;
19903;SDS011;10114;50.970;4.962;2023-11-18T13:35:50;2.20;;;2.00;;
19903;SDS011;10114;50.970;4.962;2023-11-18T13:38:16;2.50;;;2.17;;
19903;SDS011;10114;50.970;4.962;2023-11-18T13:40:47;2.10;;;1.90;;
19903;SDS011;10114;50.970;4.962;2023-11-18T13:43:13;2.33;;;2.13;;
19903;SDS011;10114;50.970;4.962;2023-11-18T13:45:40;2.40;;;2.20;;
19903;SDS011;10114;50.970;4.962;2023-11-18T13:48:07;2.72;;;2.15;;
19903;SDS011;10114;50.970;4.962;2023-11-18T13:50:37;2.10;;;2.00;;
19903;SDS011;10114;50.970;4.962;2023-11-18T13:53:03;3.10;;;2.58;;
19903;SDS011;10114;50.970;4.962;2023-11-18T13:55:30;2.50;;;2.30;;
19903;SDS011;10114;50.970;4.962;2023-11-18T13:57:57;2.65;;;2.45;;
19903;SDS011;10114;50.970;4.962;2023-11-18T14:00:27;2.97;;;2.40;;
19903;SDS011;10114;50.970;4.962;2023-11-18T14:02:56;2.65;;;2.30;;
19903;SDS011;10114;50.970;4.962;2023-11-18T14:05:22;2.38;;;2.17;;
19903;SDS011;10114;50.970;4.962;2023-11-18T14:07:58;2.63;;;2.40;;
19903;SDS011;10114;50.970;4.962;2023-11-18T14:10:24;2.38;;;2.17;;
19903;SDS011;10114;50.970;4.962;2023-11-18T14:13:06;2.47;;;2.28;;
19903;SDS011;10114;50.970;4.962;2023-11-18T14:15:37;2.50;;;2.30;;
19903;SDS011;10114;50.970;4.962;2023-11-18T14:18:03;2.42;;;2.22;;
19903;SDS011;10114;50.970;4.962;2023-11-18T14:20:29;2.70;;;2.50;;
19903;SDS011;10114;50.970;4.962;2023-11-18T14:23:00;2.45;;;2.25;;
19903;SDS011;10114;50.970;4.962;2023-11-18T14:25:26;2.65;;;2.30;;
19903;SDS011;10114;50.970;4.962;2023-11-18T14:27:53;2.40;;;2.20;;
19903;SDS011;10114;50.970;4.962;2023-11-18T14:30:19;3.05;;;2.58;;
19903;SDS011;10114;50.970;4.962;2023-11-18T14:32:45;2.97;;;2.60;;
19903;SDS011;10114;50.970;4.962;2023-11-18T14:35:13;2.75;;;2.50;;
19903;SDS011;10114;50.970;4.962;2023-11-18T14:37:42;2.42;;;2.22;;
19903;SDS011;10114;50.970;4.962;2023-11-18T14:40:12;2.28;;;2.08;;
19903;SDS011;10114;50.970;4.962;2023-11-18T14:42:46;2.30;;;2.10;;
19903;SDS011;10114;50.970;4.962;2023-11-18T14:45:15;2.38;;;2.17;;
19903;SDS011;10114;50.970;4.962;2023-11-18T14:47:42;2.15;;;2.00;;
19903;SDS011;10114;50.970;4.962;2023-11-18T14:50:12;2.80;;;2.20;;
19903;SDS011;10114;50.970;4.962;2023-11-18T14:52:45;2.60;;;2.40;;
19903;SDS011;10114;50.970;4.962;2023-11-18T14:55:11;2.30;;;2.10;;
19903;SDS011;10114;50.970;4.962;2023-11-18T14:57:40;2.05;;;1.90;;
19903;SDS011;10114;50.970;4.962;2023-11-18T15:00:09;2.33;;;2.13;;
19903;SDS011;10114;50.970;4.962;2023-11-18T15:02:39;2.22;;;2.03;;
19903;SDS011;10114;50.970;4.962;2023-11-18T15:05:05;2.70;;;2.38;;
19903;SDS011;10114;50.970;4.962;2023-11-18T15:07:34;2.50;;;2.30;;
19903;SDS011;10114;50.970;4.962;2023-11-18T15:10:00;3.00;;;2.70;;
19903;SDS011;10114;50.970;4.962;2023-11-18T15:12:28;2.40;;;2.20;;
19903;SDS011;10114;50.970;4.962;2023-11-18T15:14:55;2.58;;;2.30;;
19903;SDS011;10114;50.970;4.962;2023-11-18T15:17:24;2.35;;;2.15;;
19903;SDS011;10114;50.970;4.962;2023-11-18T15:19:50;2.20;;;2.10;;
19903;SDS011;10114;50.970;4.962;2023-11-18T15:22:18;2.42;;;2.22;;
19903;SDS011;10114;50.970;4.962;2023-11-18T15:24:44;3.45;;;2.20;;